createdAt,value
2022-12-06T00:01:14.517Z,52.48
2022-12-06T00:03:42.266Z,52.40
2022-12-06T00:06:14.236Z,53.06
2022-12-06T00:08:41.868Z,53.14
2022-12-06T00:11:19.296Z,53.18
2022-12-06T00:13:47.010Z,53.01
2022-12-06T00:16:15.590Z,53.09
2022-12-06T00:18:43.179Z,52.96
2022-12-06T00:21:11.409Z,52.97
2022-12-06T00:23:39.376Z,53.22
2022-12-06T00:26:07.084Z,53.11
2022-12-06T00:28:34.205Z,52.84
2022-12-06T00:31:02.112Z,53.04
2022-12-06T00:33:29.472Z,53.02
2022-12-06T00:36:00.957Z,52.77
2022-12-06T00:38:29.184Z,52.65
2022-12-06T00:41:04.488Z,52.78
2022-12-06T00:43:31.889Z,52.47
2022-12-06T00:45:59.076Z,52.79
2022-12-06T00:48:26.152Z,52.83
2022-12-06T00:50:53.243Z,52.97
2022-12-06T00:53:20.673Z,52.91
2022-12-06T00:55:47.848Z,52.69
2022-12-06T00:58:15.000Z,52.91
2022-12-06T01:00:42.292Z,52.63
2022-12-06T01:03:09.593Z,52.78
2022-12-06T01:05:45.648Z,52.85
2022-12-06T01:08:13.384Z,52.81
2022-12-06T01:10:40.946Z,52.95
2022-12-06T01:13:08.292Z,53.04
2022-12-06T01:15:38.542Z,53.17
2022-12-06T01:18:05.727Z,53.12
2022-12-06T01:20:32.691Z,52.93
2022-12-06T01:23:02.033Z,53.37
2022-12-06T01:25:35.620Z,53.22
2022-12-06T01:28:03.342Z,53.58
2022-12-06T01:30:32.880Z,53.37
2022-12-06T01:33:01.148Z,53.40
2022-12-06T01:35:28.067Z,53.60
2022-12-06T01:37:55.008Z,53.35
2022-12-06T01:40:21.908Z,53.31
2022-12-06T01:42:48.936Z,53.20
2022-12-06T01:45:15.877Z,53.50
2022-12-06T01:47:44.124Z,53.37
2022-12-06T01:50:11.012Z,53.51
2022-12-06T01:52:58.143Z,53.48
2022-12-06T01:55:27.453Z,53.61
2022-12-06T01:57:57.547Z,53.30
2022-12-06T02:00:24.436Z,53.41
2022-12-06T02:02:51.488Z,53.41
2022-12-06T02:05:18.472Z,53.36
2022-12-06T02:07:46.621Z,53.36
2022-12-06T02:10:13.807Z,53.58
2022-12-06T02:12:40.747Z,53.32
2022-12-06T02:15:07.991Z,53.13
2022-12-06T02:17:41.329Z,53.64
2022-12-06T02:20:26.973Z,53.50
2022-12-06T02:22:56.830Z,53.66
2022-12-06T02:25:34.349Z,53.61
2022-12-06T02:28:07.930Z,53.58
2022-12-06T02:30:47.788Z,53.39
2022-12-06T02:33:21.944Z,53.50
2022-12-06T02:35:53.762Z,53.56
2022-12-06T02:38:29.453Z,53.53
2022-12-06T02:41:02.044Z,53.51
2022-12-06T02:43:33.090Z,53.45
2022-12-06T02:46:02.715Z,53.88
2022-12-06T02:48:31.837Z,53.96
2022-12-06T02:51:06.154Z,53.97
2022-12-06T02:53:34.607Z,54.10
2022-12-06T02:56:01.933Z,53.77
2022-12-06T02:58:28.883Z,54.11
2022-12-06T03:01:03.050Z,53.87
2022-12-06T03:03:41.082Z,53.65
2022-12-06T03:06:12.737Z,53.79
2022-12-06T03:08:55.821Z,53.70
2022-12-06T03:11:28.735Z,54.02
2022-12-06T03:14:19.145Z,53.53
2022-12-06T03:16:59.182Z,53.68
2022-12-06T03:19:35.233Z,53.82
2022-12-06T03:22:25.440Z,53.42
2022-12-06T03:25:05.197Z,53.10
2022-12-06T03:27:39.664Z,53.41
2022-12-06T03:30:14.059Z,53.24
2022-12-06T03:32:45.577Z,53.13
2022-12-06T03:35:21.719Z,53.15
2022-12-06T03:38:06.019Z,52.89
2022-12-06T03:41:18.789Z,53.15
2022-12-06T03:44:03.351Z,53.27
2022-12-06T03:46:45.075Z,53.16
2022-12-06T03:49:23.583Z,52.96
2022-12-06T03:54:54.332Z,52.71
2022-12-06T03:57:29.028Z,53.16
2022-12-06T04:00:21.105Z,53.30
2022-12-06T04:02:48.100Z,53.20
2022-12-06T04:05:15.042Z,53.14
2022-12-06T04:07:45.278Z,53.32
2022-12-06T04:10:12.367Z,53.49
2022-12-06T04:12:57.817Z,53.52
2022-12-06T04:15:24.855Z,53.19
2022-12-06T04:18:10.451Z,53.34
2022-12-06T04:21:11.418Z,53.16
2022-12-06T04:23:39.990Z,53.26
2022-12-06T04:26:08.230Z,52.91
2022-12-06T04:28:53.617Z,53.03
2022-12-06T04:31:39.475Z,53.30
2022-12-06T04:34:25.601Z,52.77
2022-12-06T04:37:11.604Z,52.49
2022-12-06T04:39:38.568Z,52.73
2022-12-06T04:42:24.180Z,52.81
2022-12-06T04:44:51.671Z,52.51
2022-12-06T04:47:18.537Z,52.32
2022-12-06T04:49:45.456Z,52.47
2022-12-06T04:52:12.611Z,52.25
2022-12-06T04:54:39.698Z,51.99
2022-12-06T04:57:11.432Z,51.96
2022-12-06T05:02:24.356Z,52.18
2022-12-06T05:04:51.290Z,51.98
2022-12-06T05:07:18.210Z,51.75
2022-12-06T05:09:45.119Z,51.79
2022-12-06T05:12:12.036Z,51.77
2022-12-06T05:14:39.027Z,52.07
2022-12-06T05:17:08.975Z,52.37
2022-12-06T05:19:35.949Z,51.74
2022-12-06T05:22:02.939Z,51.69
2022-12-06T05:24:30.005Z,51.67
2022-12-06T05:26:58.123Z,51.73
2022-12-06T05:29:25.111Z,51.83
2022-12-06T05:31:52.031Z,52.03
2022-12-06T05:34:19.153Z,51.98
2022-12-06T05:36:46.242Z,51.74
2022-12-06T05:39:13.430Z,51.78
2022-12-06T05:41:40.421Z,51.58
2022-12-06T05:44:07.673Z,51.40
2022-12-06T05:46:34.745Z,51.35
2022-12-06T05:49:01.750Z,51.08
2022-12-06T05:51:28.579Z,51.19
2022-12-06T05:53:55.476Z,51.40
2022-12-06T05:56:22.332Z,51.58
2022-12-06T05:58:49.318Z,51.62
2022-12-06T06:01:18.001Z,51.40
2022-12-06T06:03:47.770Z,51.52
2022-12-06T06:06:15.322Z,51.69
2022-12-06T06:08:42.300Z,51.75
2022-12-06T06:11:09.440Z,51.96
2022-12-06T06:13:36.492Z,51.44
2022-12-06T06:16:03.538Z,51.76
2022-12-06T06:18:30.761Z,51.51
2022-12-06T06:20:59.302Z,51.50
2022-12-06T06:23:26.982Z,51.49
2022-12-06T06:25:54.536Z,51.45
2022-12-06T06:28:22.490Z,51.39
2022-12-06T06:30:49.897Z,51.50
2022-12-06T06:33:17.152Z,51.25
2022-12-06T06:35:47.272Z,51.30
2022-12-06T06:38:14.380Z,51.29
2022-12-06T06:40:41.420Z,51.14
2022-12-06T06:43:20.957Z,50.99
2022-12-06T06:45:55.423Z,50.91
2022-12-06T06:48:23.404Z,50.91
2022-12-06T06:50:56.760Z,50.74
2022-12-06T06:53:25.364Z,50.21
2022-12-06T06:55:54.162Z,50.59
2022-12-06T06:58:21.362Z,50.41
2022-12-06T07:00:52.912Z,50.43
2022-12-06T07:03:20.919Z,50.56
2022-12-06T07:05:56.188Z,50.64
2022-12-06T07:08:23.697Z,50.54
2022-12-06T07:10:50.866Z,50.65
2022-12-06T07:13:22.243Z,50.71
2022-12-06T07:15:49.426Z,50.77
2022-12-06T07:18:19.594Z,51.02
2022-12-06T07:20:47.239Z,51.00
2022-12-06T07:23:14.392Z,50.97
2022-12-06T07:25:41.664Z,51.11
2022-12-06T07:28:08.696Z,51.02
2022-12-06T07:30:36.164Z,50.95
2022-12-06T07:33:03.609Z,51.10
2022-12-06T07:35:55.465Z,50.85
2022-12-06T07:38:27.815Z,50.71
2022-12-06T07:41:04.551Z,50.87
2022-12-06T07:43:50.441Z,51.15
2022-12-06T07:46:17.696Z,51.49
2022-12-06T07:48:44.854Z,51.29
2022-12-06T07:51:11.800Z,50.97
2022-12-06T07:53:38.937Z,50.99
2022-12-06T07:56:06.527Z,51.14
2022-12-06T07:58:33.571Z,50.82
2022-12-06T08:01:05.583Z,50.69
2022-12-06T08:03:32.638Z,50.83
2022-12-06T08:06:00.063Z,50.80
2022-12-06T08:08:29.033Z,50.66
2022-12-06T08:11:01.822Z,50.58
2022-12-06T08:13:36.447Z,50.73
2022-12-06T08:16:13.252Z,50.61
2022-12-06T08:18:41.427Z,50.82
2022-12-06T08:21:20.181Z,50.69
2022-12-06T08:23:47.477Z,50.54
2022-12-06T08:26:22.235Z,50.54
2022-12-06T08:28:52.072Z,50.67
2022-12-06T08:31:24.229Z,50.21
2022-12-06T08:33:51.367Z,50.28
2022-12-06T08:36:30.102Z,50.14
2022-12-06T08:38:59.647Z,50.34
2022-12-06T08:41:51.337Z,49.63
2022-12-06T08:44:21.348Z,49.55
2022-12-06T08:46:53.656Z,49.67
2022-12-06T08:49:20.708Z,49.28
2022-12-06T08:51:50.292Z,48.84
2022-12-06T08:54:19.169Z,48.38
2022-12-06T08:56:46.662Z,47.42
2022-12-06T08:59:14.202Z,46.88
2022-12-06T09:01:41.538Z,46.18
2022-12-06T09:04:11.055Z,45.69
2022-12-06T09:06:39.257Z,45.48
2022-12-06T09:09:09.832Z,44.31
2022-12-06T09:11:39.953Z,43.52
2022-12-06T09:14:21.175Z,43.25
2022-12-06T09:16:56.098Z,42.53
2022-12-06T09:19:23.992Z,42.48
2022-12-06T09:21:56.093Z,41.70
2022-12-06T09:24:23.544Z,41.04
2022-12-06T09:26:50.604Z,39.97
2022-12-06T09:29:18.274Z,40.00
2022-12-06T09:31:45.848Z,39.53
2022-12-06T09:34:13.495Z,39.28
2022-12-06T09:36:45.671Z,38.98
2022-12-06T09:39:19.067Z,38.67
2022-12-06T09:41:58.362Z,37.82
2022-12-06T09:44:26.770Z,37.38
2022-12-06T09:46:59.908Z,37.58
2022-12-06T09:49:44.410Z,37.67
2022-12-06T09:52:26.702Z,36.78
2022-12-06T09:55:00.305Z,36.84
2022-12-06T09:57:36.877Z,36.21
2022-12-06T10:00:11.822Z,35.12
2022-12-06T10:02:45.824Z,35.35
2022-12-06T10:05:21.812Z,34.96
2022-12-06T10:08:09.663Z,34.73
2022-12-06T10:11:08.437Z,35.25
2022-12-06T10:14:03.752Z,34.87
2022-12-06T10:16:37.285Z,34.76
2022-12-06T10:19:20.004Z,34.27
2022-12-06T10:21:49.819Z,33.43
2022-12-06T10:24:25.668Z,32.76
2022-12-06T10:26:57.233Z,32.33
2022-12-06T10:29:38.188Z,32.25
2022-12-06T10:32:21.525Z,32.54
2022-12-06T10:34:59.589Z,32.85
2022-12-06T10:37:36.360Z,33.36
2022-12-06T10:40:04.369Z,32.65
2022-12-06T10:42:33.528Z,32.19
2022-12-06T10:45:42.836Z,32.60
2022-12-06T10:48:36.318Z,32.29
2022-12-06T10:51:10.080Z,33.11
2022-12-06T10:53:47.433Z,33.90
2022-12-06T10:56:21.033Z,34.81
2022-12-06T10:58:54.027Z,36.47
2022-12-06T11:01:28.734Z,37.60
2022-12-06T11:04:08.608Z,36.59
2022-12-06T11:06:39.231Z,36.40
2022-12-06T11:09:27.030Z,36.30
2022-12-06T11:11:57.168Z,36.21
2022-12-06T11:14:31.971Z,36.37
2022-12-06T11:17:07.330Z,36.33
2022-12-06T11:19:36.781Z,36.60
2022-12-06T11:22:22.727Z,36.63
2022-12-06T11:24:52.562Z,36.63
2022-12-06T11:27:38.375Z,36.33
2022-12-06T11:30:18.476Z,36.97
2022-12-06T11:32:51.025Z,36.82
2022-12-06T11:35:25.915Z,37.04
2022-12-06T11:37:55.502Z,37.74
2022-12-06T11:40:34.141Z,36.94
2022-12-06T11:43:05.529Z,37.40
2022-12-06T11:45:33.918Z,37.70
2022-12-06T11:48:20.926Z,37.36
2022-12-06T11:50:49.236Z,37.93
2022-12-06T11:53:35.774Z,38.16
2022-12-06T11:56:15.208Z,38.38
2022-12-06T11:58:49.643Z,39.03
2022-12-06T12:01:16.902Z,38.07
2022-12-06T12:03:45.293Z,37.92
2022-12-06T12:06:26.656Z,38.06
2022-12-06T12:09:25.114Z,37.63
2022-12-06T12:12:01.665Z,37.80
2022-12-06T12:14:34.197Z,37.93
2022-12-06T12:17:02.622Z,38.65
2022-12-06T12:19:34.943Z,38.32
2022-12-06T12:22:14.842Z,38.25
2022-12-06T12:27:40.764Z,38.98
2022-12-06T12:30:20.168Z,39.14
2022-12-06T12:32:48.047Z,39.12
2022-12-06T12:35:21.666Z,39.42
2022-12-06T12:37:54.172Z,39.31
2022-12-06T12:40:29.654Z,39.06
2022-12-06T12:42:58.538Z,38.96
2022-12-06T12:45:30.399Z,38.63
2022-12-06T12:48:04.760Z,38.70
2022-12-06T12:50:35.054Z,38.35
2022-12-06T12:53:05.016Z,38.75
2022-12-06T12:55:32.974Z,38.61
2022-12-06T12:58:01.230Z,38.52
2022-12-06T13:00:32.958Z,38.19
2022-12-06T13:03:50.137Z,37.54
2022-12-06T13:06:35.815Z,36.83
2022-12-06T13:09:04.252Z,35.68
2022-12-06T13:11:42.061Z,34.69
2022-12-06T13:14:16.287Z,34.51
2022-12-06T13:16:52.957Z,33.96
2022-12-06T13:19:21.581Z,33.63
2022-12-06T13:21:55.130Z,32.94
2022-12-06T13:24:31.709Z,32.57
2022-12-06T13:27:06.316Z,32.24
2022-12-06T13:29:38.720Z,32.73
2022-12-06T13:32:08.562Z,32.34
2022-12-06T13:34:38.010Z,32.61
2022-12-06T13:37:25.204Z,31.54
2022-12-06T13:39:52.545Z,31.97
2022-12-06T13:42:42.744Z,32.62
2022-12-06T13:45:35.228Z,32.54
2022-12-06T13:48:02.343Z,33.24
2022-12-06T13:50:32.204Z,33.30
2022-12-06T13:53:02.827Z,33.56
2022-12-06T13:55:32.419Z,33.85
2022-12-06T13:57:59.550Z,34.21
2022-12-06T14:00:43.125Z,33.67
2022-12-06T14:03:22.229Z,34.01
2022-12-06T14:06:12.146Z,33.82
2022-12-06T14:09:09.551Z,33.85
2022-12-06T14:11:43.085Z,33.56
2022-12-06T14:14:18.641Z,34.06
2022-12-06T14:16:51.589Z,35.26
2022-12-06T14:19:28.482Z,35.39
2022-12-06T14:22:11.642Z,35.90
2022-12-06T14:24:47.276Z,37.26
2022-12-06T14:27:17.216Z,37.62
2022-12-06T14:30:03.923Z,37.90
2022-12-06T14:32:47.509Z,37.38
2022-12-06T14:35:38.849Z,37.05
2022-12-06T14:38:24.060Z,36.90
2022-12-06T14:41:13.318Z,36.65
2022-12-06T14:43:45.112Z,36.68
2022-12-06T14:46:16.370Z,36.63
2022-12-06T14:49:16.828Z,36.41
2022-12-06T14:51:51.820Z,36.11
2022-12-06T14:54:33.786Z,36.10
2022-12-06T14:57:15.992Z,36.74
2022-12-06T15:00:14.426Z,36.62
2022-12-06T15:02:33.871Z,37.25
2022-12-06T15:05:09.689Z,37.43
2022-12-06T15:07:50.956Z,38.91
2022-12-06T15:10:28.794Z,39.35
2022-12-06T15:12:56.233Z,40.37
2022-12-06T15:15:57.391Z,41.22
2022-12-06T15:18:32.938Z,41.57
2022-12-06T15:21:06.635Z,41.62
2022-12-06T15:23:39.568Z,42.47
2022-12-06T15:26:11.505Z,42.84
2022-12-06T15:28:46.708Z,43.66
2022-12-06T15:31:30.251Z,43.70
2022-12-06T15:34:11.128Z,43.92
2022-12-06T15:36:43.456Z,44.39
2022-12-06T15:39:16.165Z,44.75
2022-12-06T15:41:56.119Z,46.03
2022-12-06T15:44:27.125Z,46.13
2022-12-06T15:46:54.523Z,47.23
2022-12-06T15:49:23.271Z,47.00
2022-12-06T15:51:50.385Z,47.07
2022-12-06T15:54:26.019Z,48.10
2022-12-06T15:56:53.472Z,47.99
2022-12-06T15:59:26.923Z,47.63
2022-12-06T16:01:54.224Z,47.88
2022-12-06T16:04:22.594Z,48.55
2022-12-06T16:06:59.797Z,48.14
2022-12-06T16:12:24.018Z,48.24
2022-12-06T16:15:00.664Z,49.09
2022-12-06T16:17:33.639Z,48.73
2022-12-06T16:20:25.157Z,48.63
2022-12-06T16:26:01.117Z,48.77
2022-12-06T16:28:28.236Z,48.79
2022-12-06T16:30:55.484Z,48.76
2022-12-06T16:33:42.228Z,48.63
2022-12-06T16:36:15.656Z,48.82
2022-12-06T16:38:45.206Z,49.10
2022-12-06T16:41:24.549Z,49.30
2022-12-06T16:43:55.336Z,49.22
2022-12-06T16:46:33.099Z,49.85
2022-12-06T16:49:22.680Z,50.00
2022-12-06T16:52:02.701Z,49.92
2022-12-06T16:54:33.399Z,50.04
2022-12-06T16:57:05.319Z,50.63
2022-12-06T16:59:35.038Z,50.52
2022-12-06T17:02:02.062Z,50.64
2022-12-06T17:04:31.770Z,50.29
2022-12-06T17:07:01.378Z,50.41
2022-12-06T17:09:33.939Z,50.56
2022-12-06T17:12:04.670Z,50.80
2022-12-06T17:14:31.789Z,51.32
2022-12-06T17:17:04.055Z,51.00
2022-12-06T17:19:35.198Z,50.97
2022-12-06T17:22:02.499Z,51.22
2022-12-06T17:24:29.513Z,51.77
2022-12-06T17:26:56.549Z,51.40
2022-12-06T17:29:23.942Z,51.34
2022-12-06T17:31:53.795Z,50.90
2022-12-06T17:34:22.212Z,51.19
2022-12-06T17:36:49.621Z,51.44
2022-12-06T17:39:18.262Z,51.49
2022-12-06T17:42:03.876Z,51.30
2022-12-06T17:44:31.076Z,51.63
2022-12-06T17:46:58.014Z,51.91
2022-12-06T17:49:26.627Z,52.08
2022-12-06T17:51:54.064Z,51.91
2022-12-06T17:54:21.999Z,52.50
2022-12-06T17:56:52.935Z,52.63
2022-12-06T17:59:24.273Z,52.54
2022-12-06T18:02:14.137Z,52.51
2022-12-06T18:04:39.560Z,52.30
2022-12-06T18:07:09.427Z,52.63
2022-12-06T18:09:36.637Z,53.25
2022-12-06T18:12:03.838Z,52.99
2022-12-06T18:14:31.017Z,53.12
2022-12-06T18:17:00.931Z,52.84
2022-12-06T18:19:28.151Z,52.85
2022-12-06T18:21:55.302Z,52.85
2022-12-06T18:24:24.627Z,53.26
2022-12-06T18:26:54.823Z,52.71
2022-12-06T18:29:22.988Z,52.38
2022-12-06T18:31:50.569Z,53.22
2022-12-06T18:34:18.089Z,53.08
2022-12-06T18:36:45.328Z,52.93
2022-12-06T18:39:15.310Z,52.76
2022-12-06T18:41:45.766Z,52.83
2022-12-06T18:44:13.220Z,52.84
2022-12-06T18:46:42.776Z,52.79
2022-12-06T18:49:11.018Z,52.91
2022-12-06T18:51:39.068Z,52.64
2022-12-06T18:54:09.212Z,52.68
2022-12-06T18:56:37.559Z,52.52
2022-12-06T18:59:06.554Z,52.83
2022-12-06T19:01:47.158Z,52.95
2022-12-06T19:04:19.508Z,52.99
2022-12-06T19:06:46.792Z,52.75
2022-12-06T19:09:15.164Z,52.82
2022-12-06T19:11:43.592Z,53.04
2022-12-06T19:14:10.992Z,52.75
2022-12-06T19:16:39.846Z,52.89
2022-12-06T19:19:14.283Z,53.14
2022-12-06T19:21:44.227Z,53.08
2022-12-06T19:24:12.104Z,53.18
2022-12-06T19:26:39.312Z,53.24
2022-12-06T19:29:06.358Z,53.39
2022-12-06T19:31:33.832Z,53.45
2022-12-06T19:34:01.394Z,53.42
2022-12-06T19:36:29.898Z,53.44
2022-12-06T19:39:01.153Z,53.48
2022-12-06T19:41:28.262Z,53.44
2022-12-06T19:44:14.037Z,53.74
2022-12-06T19:46:47.796Z,53.67
2022-12-06T19:49:27.079Z,53.38
2022-12-06T19:55:45.553Z,53.48
2022-12-06T19:58:56.510Z,53.54
2022-12-06T20:12:14.211Z,53.90
2022-12-06T20:22:08.687Z,54.48
2022-12-06T20:25:23.214Z,54.41
2022-12-06T20:35:05.061Z,54.40
2022-12-06T20:40:57.152Z,54.35
2022-12-06T20:43:28.144Z,54.23
2022-12-06T20:46:25.780Z,54.30
2022-12-06T20:49:26.847Z,54.17
2022-12-06T21:07:57.001Z,54.17
2022-12-06T21:14:37.779Z,54.34
2022-12-06T21:17:47.969Z,54.66
2022-12-06T21:23:54.845Z,54.91
2022-12-06T21:30:24.070Z,54.81
2022-12-06T21:33:35.411Z,54.99
2022-12-06T21:36:58.148Z,54.79
2022-12-06T21:39:40.440Z,54.98
2022-12-06T21:42:35.203Z,54.59
2022-12-06T21:46:00.861Z,55.16
2022-12-06T21:49:31.082Z,54.98
2022-12-06T21:52:59.662Z,55.14
2022-12-06T22:00:03.005Z,55.39
2022-12-06T22:03:38.940Z,55.20
2022-12-06T22:07:03.508Z,55.33
2022-12-06T22:12:44.658Z,55.65
2022-12-06T22:18:47.734Z,55.54
2022-12-06T22:21:35.605Z,55.29
2022-12-06T22:34:53.690Z,54.96
2022-12-06T22:48:29.390Z,55.73
2022-12-06T22:52:22.999Z,55.49
2022-12-06T22:58:00.994Z,55.80
2022-12-06T23:00:34.335Z,55.71
2022-12-06T23:10:04.284Z,55.90
2022-12-06T23:16:38.960Z,55.75
2022-12-06T23:19:41.590Z,56.00
2022-12-06T23:25:42.431Z,56.20
2022-12-06T23:28:10.565Z,56.32
2022-12-06T23:30:53.718Z,56.66
2022-12-06T23:33:32.444Z,56.50
2022-12-06T23:48:40.414Z,56.74
2022-12-06T23:55:09.572Z,56.79
